Main page
METAR-TAF:

METAR-TAF

Airports :

Rouen, France

Rouen Airport

latitude: 49-23N, longitude: 001-11E, elevation: 157 m

Current weather observation

The report was made 29 minutes ago, at 11:30 UTC
Wind 13 kt from the West/Southwest
Temperature 10°C
Humidity 82%
Pressure 1020 hPa
Visibility 10 km or more
Few clouds at a height of 1800 ft
Overcast at a height of 3200 ft

METAR: LFOP 201130Z AUTO 24013KT 9999 FEW018 OVC032 10/07 Q1020 NOSIG

Time: 12:59 (11:59 UTC)

Forecast

The report was made 59 minutes ago, at 11:00 UTC
Forecast valid from 20 at 12 UTC to 21 at 12 UTC
Wind 10 kt from the Southwest
Visibility 10 km or more
Overcast at a height of 1300 ft
Becoming
from 20 at 12 UTC to 20 at 14 UTC
Overcast at a height of 2000 ft
Probability 40%
from 21 at 00 UTC to 21 at 05 UTC
Visibility: 1500 m
mist
Temporary
from 21 at 05 UTC to 21 at 12 UTC
Overcast at a height of 800 ft

TAF: LFOP 201100Z 2012/2112 22010KT 9999 OVC013 BECMG 2012/2014 OVC020 PROB40 2100/2105 1500 BR TEMPO 2105/2112 OVC008

Weather observations and forecasts of more than 4000 airports (METAR and TAF reports).

The available stations are represented by yellow and red dots on the map.

Hover mouse over dot to see the name of the station.

Then click to see weather observations and forecasts.

To change the map : click on the green buttons with a black cross to zoom in, on the green button with a dash to zoom out, or on the green arrows for adjacent maps.


METAR-TAF: